createdAt,value
2022-12-01T00:01:49.452Z,76.92
2022-12-01T00:04:19.001Z,78.47
2022-12-01T00:06:48.439Z,80.67
2022-12-01T00:09:36.016Z,71.35
2022-12-01T00:12:05.582Z,73.37
2022-12-01T00:14:35.075Z,77.27
2022-12-01T00:17:05.606Z,76.40
2022-12-01T00:19:35.115Z,84.25
2022-12-01T00:22:04.540Z,77.37
2022-12-01T00:24:34.086Z,76.65
2022-12-01T00:27:03.511Z,73.50
2022-12-01T00:29:32.958Z,71.55
2022-12-01T00:32:02.507Z,74.77
2022-12-01T00:34:32.237Z,73.33
2022-12-01T00:37:01.826Z,77.55
2022-12-01T00:39:31.367Z,70.52
2022-12-01T00:42:00.809Z,73.40
2022-12-01T00:44:30.235Z,76.67
2022-12-01T00:46:59.693Z,72.77
2022-12-01T00:49:29.187Z,71.20
2022-12-01T00:51:59.441Z,77.03
2022-12-01T00:54:30.538Z,76.62
2022-12-01T00:57:01.404Z,79.30
2022-12-01T00:59:30.949Z,72.78
2022-12-01T01:02:00.447Z,69.93
2022-12-01T01:04:34.899Z,65.92
2022-12-01T01:07:04.986Z,65.92
2022-12-01T01:09:34.502Z,61.05
2022-12-01T01:12:04.085Z,62.98
2022-12-01T01:14:33.660Z,66.40
2022-12-01T01:17:03.945Z,61.90
2022-12-01T01:19:33.412Z,64.80
2022-12-01T01:22:02.922Z,62.83
2022-12-01T01:24:32.379Z,67.97
2022-12-01T01:27:01.822Z,69.87
2022-12-01T01:29:31.254Z,66.12
2022-12-01T01:32:00.714Z,68.50
2022-12-01T01:34:30.216Z,63.52
2022-12-01T01:36:59.713Z,64.75
2022-12-01T01:39:29.312Z,71.02
2022-12-01T01:41:58.736Z,72.42
2022-12-01T01:44:46.172Z,70.35
2022-12-01T01:47:18.196Z,68.75
2022-12-01T01:49:50.259Z,72.42
2022-12-01T01:52:20.022Z,63.40
2022-12-01T01:54:52.327Z,69.87
2022-12-01T01:57:27.659Z,63.85
2022-12-01T02:00:00.312Z,63.42
2022-12-01T02:02:29.797Z,68.17
2022-12-01T02:05:02.509Z,71.67
2022-12-01T02:07:33.132Z,63.17
2022-12-01T02:10:02.682Z,70.37
2022-12-01T02:12:50.014Z,70.20
2022-12-01T02:15:31.407Z,67.30
2022-12-01T02:18:22.056Z,70.62
2022-12-01T02:20:59.660Z,68.30
2022-12-01T02:23:32.167Z,67.35
2022-12-01T02:26:30.352Z,70.75
2022-12-01T02:29:06.267Z,75.17
2022-12-01T02:31:41.578Z,74.27
2022-12-01T02:34:25.867Z,66.85
2022-12-01T02:37:01.090Z,72.25
2022-12-01T02:39:45.544Z,65.70
2022-12-01T02:42:31.927Z,64.92
2022-12-01T02:45:05.145Z,65.85
2022-12-01T02:47:36.801Z,65.12
2022-12-01T02:50:08.871Z,70.67
2022-12-01T02:52:40.458Z,66.20
2022-12-01T02:55:10.199Z,70.33
2022-12-01T02:57:39.922Z,72.90
2022-12-01T03:00:12.496Z,73.78
2022-12-01T03:05:32.447Z,65.67
2022-12-01T03:08:28.641Z,65.28
2022-12-01T03:11:00.433Z,65.22
2022-12-01T03:13:39.035Z,65.62
2022-12-01T03:16:20.210Z,71.17
2022-12-01T03:18:55.543Z,73.28
2022-12-01T03:21:28.066Z,71.77
2022-12-01T03:25:45.385Z,71.17
2022-12-01T03:28:21.528Z,66.62
2022-12-01T03:30:51.166Z,73.92
2022-12-01T03:35:53.962Z,64.40
2022-12-01T03:38:26.087Z,69.20
2022-12-01T03:40:58.654Z,65.07
2022-12-01T03:43:31.171Z,66.62
2022-12-01T03:46:21.770Z,72.78
2022-12-01T03:48:54.170Z,69.40
2022-12-01T03:51:32.953Z,76.00
2022-12-01T03:54:08.000Z,69.60
2022-12-01T03:56:43.446Z,76.70
2022-12-01T03:59:15.639Z,67.53
2022-12-01T04:01:46.927Z,70.30
2022-12-01T04:04:16.725Z,67.85
2022-12-01T04:06:51.294Z,74.22
2022-12-01T04:09:20.714Z,75.28
2022-12-01T04:12:08.327Z,67.62
2022-12-01T04:14:37.797Z,75.72
2022-12-01T04:17:07.235Z,78.77
2022-12-01T04:19:36.671Z,70.17
2022-12-01T04:22:06.134Z,73.67
2022-12-01T04:24:35.569Z,74.85
2022-12-01T04:27:05.071Z,80.77
2022-12-01T04:29:34.665Z,79.87
2022-12-01T04:32:04.159Z,73.03
2022-12-01T04:34:33.982Z,79.77
2022-12-01T04:37:03.870Z,73.85
2022-12-01T04:39:33.364Z,74.82
2022-12-01T04:42:03.577Z,77.53
2022-12-01T04:44:34.979Z,79.22
2022-12-01T04:47:07.212Z,77.57
2022-12-01T04:49:37.359Z,81.47
2022-12-01T04:52:07.505Z,85.12
2022-12-01T04:54:36.951Z,85.42
2022-12-01T04:59:35.029Z,80.87
2022-12-01T05:02:04.736Z,75.75
2022-12-01T05:04:35.896Z,71.45
2022-12-01T05:07:05.496Z,66.62
2022-12-01T05:09:34.998Z,67.50
2022-12-01T05:12:04.509Z,69.92
2022-12-01T05:14:33.939Z,69.60
2022-12-01T05:19:50.001Z,70.83
2022-12-01T05:22:36.470Z,66.30
2022-12-01T05:24:50.970Z,74.32
2022-12-01T05:27:20.484Z,70.97
2022-12-01T05:32:19.202Z,68.33
2022-12-01T05:34:48.677Z,63.25
2022-12-01T05:37:18.185Z,71.97
2022-12-01T05:39:47.992Z,105.07
2022-12-01T05:42:17.919Z,104.40
2022-12-01T05:44:47.446Z,65.25
2022-12-01T05:47:16.945Z,62.65
2022-12-01T05:49:46.513Z,62.38
2022-12-01T05:52:16.327Z,68.28
2022-12-01T05:54:45.824Z,68.78
2022-12-01T05:57:15.255Z,70.37
2022-12-01T05:59:44.719Z,66.92
2022-12-01T06:02:14.257Z,63.87
2022-12-01T06:04:44.547Z,60.35
2022-12-01T06:07:13.987Z,62.58
2022-12-01T06:09:45.077Z,59.50
2022-12-01T06:12:14.687Z,71.87
2022-12-01T06:14:44.188Z,57.90
2022-12-01T06:17:13.719Z,70.80
2022-12-01T06:19:43.617Z,65.80
2022-12-01T06:22:13.052Z,54.25
2022-12-01T06:24:42.663Z,51.80
2022-12-01T06:27:12.096Z,45.25
2022-12-01T06:29:42.371Z,50.17
2022-12-01T06:32:12.068Z,45.37
2022-12-01T06:34:41.623Z,39.75
2022-12-01T06:37:12.786Z,38.53
2022-12-01T06:39:43.052Z,38.08
2022-12-01T06:42:12.679Z,38.10
2022-12-01T06:44:42.229Z,39.92
2022-12-01T06:47:11.706Z,35.43
2022-12-01T06:49:41.168Z,42.40
2022-12-01T06:52:11.732Z,33.65
2022-12-01T06:54:41.260Z,35.03
2022-12-01T06:57:11.103Z,36.20
2022-12-01T06:59:40.545Z,35.20
2022-12-01T07:02:13.146Z,31.52
2022-12-01T07:04:42.543Z,26.50
2022-12-01T07:07:12.713Z,30.52
2022-12-01T07:09:42.198Z,30.88
2022-12-01T07:12:11.633Z,27.30
2022-12-01T07:14:42.507Z,27.95
2022-12-01T07:17:11.933Z,29.50
2022-12-01T07:19:41.403Z,24.90
2022-12-01T07:22:10.870Z,26.62
2022-12-01T07:24:40.301Z,28.42
2022-12-01T07:34:36.014Z,27.65
2022-12-01T07:37:05.534Z,31.80
2022-12-01T07:39:35.032Z,30.65
2022-12-01T07:42:05.046Z,31.68
2022-12-01T07:44:34.495Z,26.93
2022-12-01T07:47:03.957Z,27.13
2022-12-01T07:49:34.369Z,26.42
2022-12-01T07:52:03.871Z,27.77
2022-12-01T07:54:33.299Z,24.57
2022-12-01T07:57:02.772Z,24.43
2022-12-01T07:59:32.267Z,21.62
2022-12-01T08:02:01.826Z,27.30
2022-12-01T08:04:33.281Z,23.20
2022-12-01T08:07:02.760Z,21.87
2022-12-01T08:09:32.255Z,24.23
2022-12-01T08:12:01.767Z,25.20
2022-12-01T08:14:31.190Z,23.45
2022-12-01T08:17:00.652Z,21.75
2022-12-01T08:19:30.076Z,21.10
2022-12-01T08:21:59.562Z,17.45
2022-12-01T08:24:28.980Z,17.87
2022-12-01T08:26:58.547Z,18.98
2022-12-01T08:29:28.041Z,20.00
2022-12-01T08:31:59.735Z,20.65
2022-12-01T08:34:29.155Z,23.90
2022-12-01T08:36:58.644Z,21.17
2022-12-01T08:39:28.076Z,19.48
2022-12-01T08:41:57.602Z,20.00
2022-12-01T08:44:27.039Z,22.07
2022-12-01T08:46:56.662Z,18.65
2022-12-01T08:49:26.906Z,17.98
2022-12-01T08:51:56.336Z,19.17
2022-12-01T08:54:25.934Z,16.80
2022-12-01T08:56:55.436Z,20.12
2022-12-01T08:59:25.107Z,23.07
2022-12-01T09:01:54.589Z,21.42
2022-12-01T09:04:26.797Z,19.62
2022-12-01T09:06:58.145Z,25.37
2022-12-01T09:09:29.653Z,18.98
2022-12-01T09:11:59.210Z,19.23
2022-12-01T09:14:28.650Z,24.60
2022-12-01T09:16:58.734Z,26.37
2022-12-01T09:19:28.962Z,24.95
2022-12-01T09:21:58.607Z,21.75
2022-12-01T09:24:28.247Z,25.12
2022-12-01T09:26:59.828Z,27.83
2022-12-01T09:29:29.311Z,25.45
2022-12-01T09:32:00.373Z,25.32
2022-12-01T09:34:30.374Z,24.10
2022-12-01T09:36:59.932Z,24.27
2022-12-01T09:39:30.035Z,25.70
2022-12-01T09:42:07.641Z,23.27
2022-12-01T09:44:40.191Z,24.55
2022-12-01T09:47:21.446Z,22.48
2022-12-01T09:50:00.459Z,28.27
2022-12-01T09:52:32.816Z,24.95
2022-12-01T09:55:03.002Z,27.52
2022-12-01T09:57:35.424Z,22.62
2022-12-01T10:00:14.279Z,26.07
2022-12-01T10:02:46.770Z,21.35
2022-12-01T10:05:19.706Z,25.50
2022-12-01T10:07:55.153Z,26.50
2022-12-01T10:10:33.698Z,29.20
2022-12-01T10:13:03.802Z,30.43
2022-12-01T10:15:48.592Z,30.65
2022-12-01T10:18:42.043Z,29.77
2022-12-01T10:24:03.007Z,25.45
2022-12-01T10:27:00.114Z,35.75
2022-12-01T10:29:49.456Z,24.40
2022-12-01T10:32:29.989Z,25.80
2022-12-01T10:34:59.955Z,25.95
2022-12-01T10:37:31.885Z,24.70
2022-12-01T10:40:01.491Z,30.87
2022-12-01T10:42:42.662Z,31.37
2022-12-01T10:45:15.435Z,25.80
2022-12-01T10:48:11.001Z,32.75
2022-12-01T10:50:41.189Z,30.15
2022-12-01T10:53:13.766Z,33.92
2022-12-01T10:55:47.973Z,32.13
2022-12-01T10:58:17.635Z,25.73
2022-12-01T11:01:05.627Z,24.27
2022-12-01T11:03:24.158Z,23.22
2022-12-01T11:05:59.664Z,19.35
2022-12-01T11:08:58.156Z,21.87
2022-12-01T11:11:30.675Z,24.75
2022-12-01T11:14:03.335Z,16.10
2022-12-01T11:16:47.180Z,17.20
2022-12-01T11:19:27.519Z,21.07
2022-12-01T11:22:01.916Z,22.95
2022-12-01T11:24:46.150Z,19.17
2022-12-01T11:27:18.600Z,20.00
2022-12-01T11:29:51.883Z,20.57
2022-12-01T11:32:27.559Z,25.43
2022-12-01T11:35:03.006Z,21.85
2022-12-01T11:37:42.029Z,22.52
2022-12-01T11:40:26.617Z,19.42
2022-12-01T11:42:59.475Z,17.50
2022-12-01T11:45:34.901Z,15.75
2022-12-01T11:48:16.830Z,21.30
2022-12-01T11:51:06.416Z,20.63
2022-12-01T11:53:42.002Z,23.00
2022-12-01T11:56:17.587Z,18.32
2022-12-01T11:58:49.303Z,19.60
2022-12-01T12:01:30.931Z,25.52
2022-12-01T12:04:09.235Z,22.37
2022-12-01T12:06:41.949Z,22.20
2022-12-01T12:09:31.604Z,20.55
2022-12-01T12:12:10.407Z,21.42
2022-12-01T12:14:42.911Z,19.85
2022-12-01T12:17:18.395Z,20.37
2022-12-01T12:20:17.500Z,18.45
2022-12-01T12:23:02.202Z,22.35
2022-12-01T12:25:37.476Z,21.65
2022-12-01T12:28:15.269Z,18.90
2022-12-01T12:30:50.344Z,19.35
2022-12-01T12:33:41.243Z,23.02
2022-12-01T12:36:35.057Z,18.25
2022-12-01T12:39:26.752Z,20.30
2022-12-01T12:41:58.119Z,19.02
2022-12-01T12:44:42.641Z,22.40
2022-12-01T12:47:20.622Z,21.65
2022-12-01T12:50:11.493Z,21.27
2022-12-01T12:52:46.857Z,20.27
2022-12-01T12:55:31.427Z,19.83
2022-12-01T12:58:11.380Z,16.27
2022-12-01T13:00:44.097Z,17.55
2022-12-01T13:03:19.495Z,19.52
2022-12-01T13:05:57.818Z,16.67
2022-12-01T13:08:30.478Z,17.52
2022-12-01T13:11:03.373Z,17.90
2022-12-01T13:13:38.678Z,18.07
2022-12-01T13:16:13.879Z,16.23
2022-12-01T13:18:59.630Z,17.15
2022-12-01T13:21:32.192Z,18.80
2022-12-01T13:24:03.517Z,19.90
2022-12-01T13:26:35.093Z,16.52
2022-12-01T13:29:07.623Z,18.50
2022-12-01T13:31:44.094Z,17.70
2022-12-01T13:34:19.238Z,17.57
2022-12-01T13:36:53.868Z,16.77
2022-12-01T13:39:28.897Z,18.25
2022-12-01T13:42:01.441Z,22.40
2022-12-01T13:44:39.756Z,17.23
2022-12-01T13:47:15.250Z,17.70
2022-12-01T13:49:50.198Z,17.23
2022-12-01T13:52:26.779Z,18.53
2022-12-01T13:55:14.263Z,17.67
2022-12-01T13:57:52.674Z,19.32
2022-12-01T14:00:28.950Z,18.65
2022-12-01T14:05:57.331Z,17.62
2022-12-01T14:08:31.861Z,21.45
2022-12-01T14:11:04.490Z,18.85
2022-12-01T14:13:37.142Z,18.80
2022-12-01T14:16:07.196Z,17.95
2022-12-01T14:18:42.629Z,21.07
2022-12-01T14:21:14.877Z,32.85
2022-12-01T14:24:01.962Z,36.55
2022-12-01T14:26:32.303Z,32.65
2022-12-01T14:29:04.918Z,41.63
2022-12-01T14:31:37.990Z,36.65
2022-12-01T14:34:24.283Z,27.35
2022-12-01T14:37:12.889Z,24.87
2022-12-01T14:40:06.632Z,35.90
2022-12-01T14:43:02.921Z,39.40
2022-12-01T14:45:35.569Z,50.48
2022-12-01T14:50:53.611Z,34.40
2022-12-01T14:53:26.176Z,34.53
2022-12-01T14:55:58.883Z,22.95
2022-12-01T14:58:31.705Z,25.15
2022-12-01T15:01:08.531Z,23.32
2022-12-01T15:03:43.912Z,22.48
2022-12-01T15:06:19.308Z,25.05
2022-12-01T15:09:10.397Z,20.43
2022-12-01T15:11:25.789Z,25.30
2022-12-01T15:13:58.161Z,33.00
2022-12-01T15:16:31.024Z,21.40
2022-12-01T15:21:32.028Z,20.20
2022-12-01T15:26:38.153Z,18.30
2022-12-01T15:29:31.556Z,18.12
2022-12-01T15:32:07.287Z,19.32
2022-12-01T15:34:39.915Z,18.80
2022-12-01T15:37:12.546Z,19.37
2022-12-01T15:39:55.684Z,19.80
2022-12-01T15:42:33.233Z,20.65
2022-12-01T15:47:48.280Z,17.48
2022-12-01T15:50:31.258Z,21.75
2022-12-01T15:53:09.822Z,20.68
2022-12-01T15:55:40.443Z,19.48
2022-12-01T15:58:12.552Z,19.10
2022-12-01T16:00:42.294Z,19.27
2022-12-01T16:03:14.515Z,20.60
2022-12-01T16:05:45.789Z,25.97
2022-12-01T16:08:20.639Z,41.10
2022-12-01T16:11:15.985Z,97.77
2022-12-01T16:14:00.481Z,126.20
2022-12-01T16:16:50.386Z,35.60
2022-12-01T16:19:36.139Z,58.28
2022-12-01T16:22:14.706Z,29.72
2022-12-01T16:24:55.747Z,27.55
2022-12-01T16:27:30.974Z,25.40
2022-12-01T16:30:06.560Z,28.90
2022-12-01T16:32:41.033Z,22.27
2022-12-01T16:37:53.343Z,22.13
2022-12-01T16:40:22.909Z,19.25
2022-12-01T16:45:21.570Z,26.25
2022-12-01T16:47:51.584Z,23.12
2022-12-01T16:50:23.105Z,37.00
2022-12-01T16:52:52.764Z,41.37
2022-12-01T16:55:25.566Z,27.32
2022-12-01T16:57:55.863Z,29.20
2022-12-01T17:00:26.008Z,35.58
2022-12-01T17:02:55.770Z,22.65
2022-12-01T17:05:26.102Z,49.23
2022-12-01T17:07:55.910Z,42.13
2022-12-01T17:10:26.041Z,29.18
2022-12-01T17:12:55.702Z,26.02
2022-12-01T17:15:25.837Z,33.30
2022-12-01T17:20:24.351Z,27.50
2022-12-01T17:22:54.115Z,38.15
2022-12-01T17:25:25.323Z,30.32
2022-12-01T17:27:55.058Z,32.05
2022-12-01T17:30:25.254Z,31.75
2022-12-01T17:35:24.022Z,29.98
2022-12-01T17:37:53.940Z,29.60
2022-12-01T17:42:53.600Z,24.82
2022-12-01T17:45:23.118Z,32.03
2022-12-01T17:47:52.864Z,26.65
2022-12-01T17:50:22.765Z,30.30
2022-12-01T17:52:52.338Z,30.27
2022-12-01T17:55:22.015Z,27.98
2022-12-01T17:57:51.916Z,30.92
2022-12-01T18:00:22.819Z,29.50
2022-12-01T18:02:52.519Z,27.48
2022-12-01T18:05:22.277Z,26.07
2022-12-01T18:07:52.532Z,25.02
2022-12-01T18:10:22.687Z,29.80
2022-12-01T18:12:52.382Z,26.62
2022-12-01T18:15:22.119Z,27.98
2022-12-01T18:17:52.686Z,33.28
2022-12-01T18:20:22.252Z,26.60
2022-12-01T18:22:51.754Z,33.48
2022-12-01T18:27:51.352Z,30.80
2022-12-01T18:30:20.945Z,27.87
2022-12-01T18:32:50.384Z,25.37
2022-12-01T18:35:19.954Z,22.90
2022-12-01T18:37:49.547Z,23.52
2022-12-01T18:40:19.119Z,28.83
2022-12-01T18:42:50.377Z,27.52
2022-12-01T18:45:21.437Z,28.10
2022-12-01T18:47:50.959Z,29.60
2022-12-01T18:50:20.377Z,24.45
2022-12-01T18:52:49.805Z,22.42
2022-12-01T18:55:19.379Z,23.27
2022-12-01T18:57:48.797Z,26.37
2022-12-01T19:00:19.366Z,25.17
2022-12-01T19:02:48.781Z,29.70
2022-12-01T19:05:18.285Z,28.70
2022-12-01T19:07:48.161Z,27.37
2022-12-01T19:10:17.988Z,28.73
2022-12-01T19:12:47.489Z,25.23
2022-12-01T19:15:17.032Z,23.52
2022-12-01T19:17:46.523Z,25.25
2022-12-01T19:20:16.024Z,29.30
2022-12-01T19:22:45.481Z,37.30
2022-12-01T19:25:14.978Z,25.73
2022-12-01T19:27:44.484Z,24.98
2022-12-01T19:30:14.234Z,29.85
2022-12-01T19:32:43.943Z,30.40
2022-12-01T19:35:13.452Z,27.97
2022-12-01T19:37:43.012Z,30.65
2022-12-01T19:40:13.547Z,30.48
2022-12-01T19:45:12.447Z,29.65
2022-12-01T19:47:41.880Z,30.72
2022-12-01T19:50:11.721Z,30.70
2022-12-01T19:52:41.742Z,40.88
2022-12-01T19:55:11.957Z,36.83
2022-12-01T19:57:41.392Z,26.12
2022-12-01T20:00:12.309Z,44.00
2022-12-01T20:02:41.185Z,31.35
2022-12-01T20:05:10.869Z,30.83
2022-12-01T20:07:40.428Z,31.10
2022-12-01T20:10:10.768Z,39.20
2022-12-01T20:12:40.361Z,37.70
2022-12-01T20:15:10.736Z,30.15
2022-12-01T20:17:40.171Z,31.05
2022-12-01T20:20:10.780Z,34.80
2022-12-01T20:22:40.289Z,33.10
2022-12-01T20:25:10.181Z,25.68
2022-12-01T20:27:39.749Z,23.90
2022-12-01T20:30:10.539Z,29.35
2022-12-01T20:32:40.043Z,30.92
2022-12-01T20:35:11.394Z,30.77
2022-12-01T20:37:42.044Z,27.50
2022-12-01T20:40:12.368Z,26.62
2022-12-01T20:42:41.806Z,32.38
2022-12-01T20:45:11.293Z,34.65
2022-12-01T20:47:41.109Z,49.13
2022-12-01T20:50:10.918Z,28.70
2022-12-01T20:52:41.396Z,37.17
2022-12-01T20:55:10.975Z,33.73
2022-12-01T20:57:40.403Z,32.03
2022-12-01T21:00:12.215Z,30.20
2022-12-01T21:02:43.731Z,27.70
2022-12-01T21:05:13.318Z,23.73
2022-12-01T21:07:42.840Z,26.73
2022-12-01T21:10:16.993Z,81.57
2022-12-01T21:13:03.795Z,43.90
2022-12-01T21:15:36.371Z,25.10
2022-12-01T21:18:08.601Z,24.87
2022-12-01T21:20:43.085Z,26.68
2022-12-01T21:23:19.903Z,30.43
2022-12-01T21:25:51.398Z,33.33
2022-12-01T21:28:25.903Z,27.05
2022-12-01T21:30:58.499Z,23.12
2022-12-01T21:36:00.384Z,31.87
2022-12-01T21:38:31.514Z,24.10
2022-12-01T21:43:35.227Z,26.02
2022-12-01T21:51:05.212Z,27.80
2022-12-01T21:56:07.009Z,24.15
2022-12-01T21:58:38.152Z,23.73
2022-12-01T22:01:10.775Z,26.12
2022-12-01T22:03:43.240Z,18.52
2022-12-01T22:06:34.924Z,24.07
2022-12-01T22:09:13.827Z,23.10
2022-12-01T22:11:45.992Z,22.48
2022-12-01T22:14:24.549Z,20.13
2022-12-01T22:17:00.611Z,20.05
2022-12-01T22:19:35.110Z,19.92
2022-12-01T22:22:15.020Z,20.72
2022-12-01T22:24:47.101Z,19.12
2022-12-01T22:27:31.976Z,18.97
2022-12-01T22:30:04.486Z,18.82
2022-12-01T22:32:37.418Z,18.23
2022-12-01T22:35:14.635Z,20.55
2022-12-01T22:37:50.082Z,19.60
2022-12-01T22:40:37.674Z,16.02
2022-12-01T22:43:15.968Z,20.57
2022-12-01T22:45:51.007Z,20.40
2022-12-01T22:48:32.442Z,20.35
2022-12-01T22:51:26.703Z,23.98
2022-12-01T22:54:17.184Z,21.87
2022-12-01T22:56:49.599Z,20.45
2022-12-01T22:59:30.526Z,23.32
2022-12-01T23:02:02.545Z,24.37
2022-12-01T23:04:41.117Z,26.25
2022-12-01T23:07:25.500Z,23.70
2022-12-01T23:09:56.559Z,24.80
2022-12-01T23:12:31.695Z,19.67
2022-12-01T23:15:19.132Z,21.30
2022-12-01T23:17:49.229Z,23.02
2022-12-01T23:20:35.547Z,25.00
2022-12-01T23:23:08.110Z,23.95
2022-12-01T23:25:37.620Z,23.12
2022-12-01T23:28:09.878Z,23.85
2022-12-01T23:30:41.852Z,19.27
2022-12-01T23:33:17.098Z,22.65
2022-12-01T23:36:07.522Z,20.43
2022-12-01T23:38:39.804Z,18.67
2022-12-01T23:43:42.532Z,19.05
2022-12-01T23:46:17.129Z,22.02
2022-12-01T23:48:49.689Z,20.10
2022-12-01T23:51:28.038Z,18.80
2022-12-01T23:53:58.709Z,22.90
2022-12-01T23:56:30.891Z,22.48
2022-12-01T23:59:02.424Z,23.95
